Time;durP1;ratioP1;P1;durP2;ratioP2;P2;SDS_P1;SDS_P2;PMS_P1;PMS_P2;Temp;Humidity;BMP_temperature;BMP_pressure;BME280_temperature;BME280_humidity;BME280_pressure;Samples;Min_cycle;Max_cycle;Signal;HPM_P1;HPM_P2
2022/07/09 00:01:49;;;;;;;9.00;3.67;;;;;;;;;;4934691;29;20876;-81
2022/07/09 00:04:20;;;;;;;7.60;3.70;;;;;;;;;;4935453;29;20227;-80
2022/07/09 00:06:49;;;;;;;5.67;3.67;;;;;;;;;;4940228;29;20203;-81
2022/07/09 00:09:16;;;;;;;7.03;3.27;;;;;;;;;;4937602;29;20223;-81
2022/07/09 00:11:43;;;;;;;8.33;3.40;;;;;;;;;;4939755;29;20215;-81
2022/07/09 00:14:12;;;;;;;9.47;3.40;;;;;;;;;;4932242;29;20293;-81
2022/07/09 00:16:41;;;;;;;4.20;2.97;;;;;;;;;;4933630;29;20217;-81
2022/07/09 00:19:12;;;;;;;5.07;3.40;;;;;;;;;;4936853;28;20309;-81
2022/07/09 00:21:43;;;;;;;7.23;3.33;;;;;;;;;;4935312;29;20209;-81
2022/07/09 00:24:15;;;;;;;10.87;3.23;;;;;;;;;;4932575;29;20712;-81
2022/07/09 00:26:42;;;;;;;8.63;3.50;;;;;;;;;;4937380;29;20214;-81
2022/07/09 00:29:09;;;;;;;5.37;2.83;;;;;;;;;;4941439;29;20211;-81
2022/07/09 00:31:38;;;;;;;5.43;3.33;;;;;;;;;;4939752;29;20218;-81
2022/07/09 00:34:08;;;;;;;6.83;3.80;;;;;;;;;;4952158;28;20270;-80
2022/07/09 00:36:37;;;;;;;3.83;3.13;;;;;;;;;;4954981;29;20199;-80
2022/07/09 00:39:07;;;;;;;6.20;3.50;;;;;;;;;;4940119;28;20270;-81
2022/07/09 00:41:36;;;;;;;5.73;3.43;;;;;;;;;;4940815;29;20202;-81
2022/07/09 00:44:04;;;;;;;6.00;3.27;;;;;;;;;;4945182;28;20266;-82
2022/07/09 00:46:31;;;;;;;5.00;3.50;;;;;;;;;;4935077;29;20205;-82
2022/07/09 00:49:03;;;;;;;9.07;4.30;;;;;;;;;;4937828;29;20218;-82
2022/07/09 00:51:33;;;;;;;6.80;3.77;;;;;;;;;;4936468;29;20213;-82
2022/07/09 00:54:02;;;;;;;6.30;3.57;;;;;;;;;;4938276;29;20254;-82
2022/07/09 00:56:32;;;;;;;5.63;4.00;;;;;;;;;;4937806;29;20209;-82
2022/07/09 00:59:01;;;;;;;5.37;3.90;;;;;;;;;;4939570;29;20198;-82
2022/07/09 01:01:28;;;;;;;7.33;4.00;;;;;;;;;;4934974;29;20211;-81
2022/07/09 01:03:56;;;;;;;7.10;3.63;;;;;;;;;;4934609;29;20234;-81
2022/07/09 01:06:29;;;;;;;7.17;3.73;;;;;;;;;;4936152;29;20694;-82
2022/07/09 01:08:56;;;;;;;4.33;3.47;;;;;;;;;;4943743;28;20214;-82
2022/07/09 01:11:27;;;;;;;5.97;3.73;;;;;;;;;;4936695;29;20695;-82
2022/07/09 01:13:54;;;;;;;7.40;4.30;;;;;;;;;;4938502;29;20286;-82
2022/07/09 01:16:23;;;;;;;6.77;4.43;;;;;;;;;;4934131;29;20198;-82
2022/07/09 01:18:50;;;;;;;7.87;4.30;;;;;;;;;;4938442;29;20203;-80
2022/07/09 01:21:19;;;;;;;7.73;3.90;;;;;;;;;;4933284;29;20220;-82
2022/07/09 01:23:46;;;;;;;5.67;3.70;;;;;;;;;;4937376;29;20334;-82
2022/07/09 01:26:15;;;;;;;7.57;3.83;;;;;;;;;;4941479;29;20218;-81
2022/07/09 01:28:42;;;;;;;8.60;4.00;;;;;;;;;;4941146;29;20211;-82
2022/07/09 01:31:10;;;;;;;8.33;4.37;;;;;;;;;;4938948;29;20333;-82
2022/07/09 01:33:38;;;;;;;5.90;3.60;;;;;;;;;;4934960;29;20215;-82
2022/07/09 01:36:06;;;;;;;6.07;3.70;;;;;;;;;;4937219;29;20301;-82
2022/07/09 01:38:35;;;;;;;8.23;4.40;;;;;;;;;;4934869;29;20711;-82
2022/07/09 01:41:02;;;;;;;5.10;3.67;;;;;;;;;;4937789;29;20239;-82
2022/07/09 01:43:30;;;;;;;6.27;3.97;;;;;;;;;;4933265;29;20290;-82
2022/07/09 01:46:00;;;;;;;7.30;3.87;;;;;;;;;;4936803;29;20680;-82
2022/07/09 01:48:29;;;;;;;5.70;3.97;;;;;;;;;;4933922;29;20221;-82
2022/07/09 01:50:58;;;;;;;9.60;3.50;;;;;;;;;;4939085;29;20290;-82
2022/07/09 01:53:33;;;;;;;8.23;3.50;;;;;;;;;;4936209;29;20219;-81
2022/07/09 01:56:05;;;;;;;8.03;4.03;;;;;;;;;;4938404;29;20243;-82
2022/07/09 01:58:32;;;;;;;8.57;4.20;;;;;;;;;;4938658;29;20212;-82
2022/07/09 02:00:59;;;;;;;5.67;3.73;;;;;;;;;;4943780;29;20346;-82
2022/07/09 02:03:27;;;;;;;9.57;4.10;;;;;;;;;;4936925;29;20252;-82
2022/07/09 02:05:54;;;;;;;8.33;4.47;;;;;;;;;;4940460;29;20223;-82
2022/07/09 02:08:22;;;;;;;6.73;3.87;;;;;;;;;;4939178;29;20298;-81
2022/07/09 02:10:49;;;;;;;5.47;4.13;;;;;;;;;;4933755;29;20233;-82
2022/07/09 02:13:19;;;;;;;5.90;4.07;;;;;;;;;;4936133;29;20242;-81
2022/07/09 02:15:46;;;;;;;6.03;3.87;;;;;;;;;;4943109;29;20206;-82
2022/07/09 02:18:14;;;;;;;6.00;4.20;;;;;;;;;;4941673;29;20242;-82
2022/07/09 02:20:43;;;;;;;9.33;4.03;;;;;;;;;;4941834;28;20598;-82
2022/07/09 02:23:11;;;;;;;6.30;4.33;;;;;;;;;;4943286;29;20258;-82
2022/07/09 02:25:40;;;;;;;9.17;4.30;;;;;;;;;;4936817;29;20777;-82
2022/07/09 02:28:07;;;;;;;6.77;3.70;;;;;;;;;;4934914;29;20199;-81
2022/07/09 02:30:36;;;;;;;7.70;4.20;;;;;;;;;;4934479;29;20307;-81
2022/07/09 02:33:04;;;;;;;7.80;4.13;;;;;;;;;;4932478;29;20318;-82
2022/07/09 02:35:35;;;;;;;8.87;4.17;;;;;;;;;;4940485;29;20207;-82
2022/07/09 02:38:02;;;;;;;6.33;4.27;;;;;;;;;;4936962;29;20213;-82
2022/07/09 02:40:30;;;;;;;6.53;3.90;;;;;;;;;;4939014;28;20322;-81
2022/07/09 02:42:59;;;;;;;9.60;4.40;;;;;;;;;;4942423;29;20218;-82
2022/07/09 02:45:26;;;;;;;6.27;4.13;;;;;;;;;;4936209;29;20229;-82
2022/07/09 02:47:55;;;;;;;7.50;4.07;;;;;;;;;;4942487;29;20217;-82
2022/07/09 02:50:24;;;;;;;7.70;4.13;;;;;;;;;;4937835;28;20241;-82
2022/07/09 02:52:51;;;;;;;5.50;4.07;;;;;;;;;;4942594;29;20286;-82
2022/07/09 02:55:19;;;;;;;5.70;3.93;;;;;;;;;;4935783;29;20207;-82
2022/07/09 02:57:46;;;;;;;6.27;3.83;;;;;;;;;;4943619;29;20233;-82
2022/07/09 03:00:13;;;;;;;7.03;4.20;;;;;;;;;;4937629;29;20223;-82
2022/07/09 03:02:40;;;;;;;8.83;4.20;;;;;;;;;;4941478;29;20207;-82
2022/07/09 03:05:10;;;;;;;5.63;4.13;;;;;;;;;;4939614;29;20242;-82
2022/07/09 03:07:37;;;;;;;6.63;4.30;;;;;;;;;;4937233;28;20216;-82
2022/07/09 03:10:04;;;;;;;5.50;3.77;;;;;;;;;;4942370;28;20665;-82
2022/07/09 03:12:32;;;;;;;8.03;4.40;;;;;;;;;;4937893;29;20703;-82
2022/07/09 03:14:59;;;;;;;6.97;3.97;;;;;;;;;;4938496;29;20289;-82
2022/07/09 03:17:26;;;;;;;5.40;4.07;;;;;;;;;;4942762;29;20199;-82
2022/07/09 03:19:54;;;;;;;7.57;4.37;;;;;;;;;;4938385;29;20234;-82
2022/07/09 03:22:23;;;;;;;6.13;4.43;;;;;;;;;;4942736;29;20207;-82
2022/07/09 03:24:52;;;;;;;6.27;4.20;;;;;;;;;;4940579;29;20223;-82
2022/07/09 03:27:19;;;;;;;10.63;4.20;;;;;;;;;;4936947;29;20582;-82
2022/07/09 03:29:47;;;;;;;8.40;4.00;;;;;;;;;;4939198;29;20228;-82
2022/07/09 03:32:14;;;;;;;6.67;4.37;;;;;;;;;;4936062;29;20206;-81
2022/07/09 03:34:42;;;;;;;9.27;4.47;;;;;;;;;;4936347;29;20213;-81
2022/07/09 03:37:10;;;;;;;5.37;3.67;;;;;;;;;;4940106;29;20226;-81
2022/07/09 03:39:39;;;;;;;4.90;4.13;;;;;;;;;;4938387;28;20725;-81
2022/07/09 03:42:07;;;;;;;6.53;4.03;;;;;;;;;;4933959;29;20706;-82
2022/07/09 03:44:40;;;;;;;5.57;4.10;;;;;;;;;;4935652;29;20237;-82
2022/07/09 03:47:11;;;;;;;7.63;4.10;;;;;;;;;;4937447;29;20241;-81
2022/07/09 03:49:42;;;;;;;7.60;4.40;;;;;;;;;;4936359;29;20996;-81
2022/07/09 03:52:09;;;;;;;6.77;3.90;;;;;;;;;;4937568;29;20217;-81
2022/07/09 03:54:39;;;;;;;7.30;4.40;;;;;;;;;;4939223;29;20202;-81
2022/07/09 03:57:07;;;;;;;5.77;4.03;;;;;;;;;;4940274;29;20214;-82
2022/07/09 03:59:36;;;;;;;5.20;4.10;;;;;;;;;;4936412;29;20691;-82
2022/07/09 04:02:06;;;;;;;5.17;3.90;;;;;;;;;;4937721;29;20313;-82
2022/07/09 04:04:33;;;;;;;5.13;3.57;;;;;;;;;;4947557;29;20694;-81
2022/07/09 04:07:01;;;;;;;5.53;3.63;;;;;;;;;;4955544;29;20206;-81
2022/07/09 04:09:30;;;;;;;6.60;3.97;;;;;;;;;;4945144;28;20297;-81
2022/07/09 04:11:57;;;;;;;5.73;3.90;;;;;;;;;;4935247;29;20218;-81
2022/07/09 04:14:26;;;;;;;6.77;4.00;;;;;;;;;;4935213;29;20278;-81
2022/07/09 04:16:58;;;;;;;7.53;3.77;;;;;;;;;;4930476;29;20203;-81
2022/07/09 04:19:25;;;;;;;5.37;3.63;;;;;;;;;;4933732;29;20223;-81
2022/07/09 04:21:52;;;;;;;7.40;3.70;;;;;;;;;;4935790;29;20208;-81
2022/07/09 04:24:20;;;;;;;4.40;3.10;;;;;;;;;;4931296;29;20211;-82
2022/07/09 04:26:47;;;;;;;8.20;3.47;;;;;;;;;;4935197;29;20237;-82
2022/07/09 04:29:14;;;;;;;4.70;2.93;;;;;;;;;;4935549;29;20313;-82
2022/07/09 04:31:43;;;;;;;3.57;2.73;;;;;;;;;;4934637;29;20311;-82
2022/07/09 04:34:15;;;;;;;5.80;2.87;;;;;;;;;;4931905;29;20270;-83
2022/07/09 04:36:45;;;;;;;3.83;2.57;;;;;;;;;;4937986;29;20219;-82
2022/07/09 04:39:16;;;;;;;4.70;2.23;;;;;;;;;;4937008;29;20234;-80
2022/07/09 04:41:43;;;;;;;3.50;2.33;;;;;;;;;;4938979;29;20238;-79
2022/07/09 04:44:15;;;;;;;3.47;2.57;;;;;;;;;;4935131;29;20218;-83
2022/07/09 04:46:46;;;;;;;4.57;2.47;;;;;;;;;;4933030;29;20274;-83
2022/07/09 04:49:13;;;;;;;4.63;2.17;;;;;;;;;;4933854;29;20234;-81
2022/07/09 04:51:41;;;;;;;3.60;2.17;;;;;;;;;;4940370;29;20206;-81
2022/07/09 04:54:11;;;;;;;5.00;2.30;;;;;;;;;;4936833;29;20211;-80
2022/07/09 04:56:40;;;;;;;4.70;2.40;;;;;;;;;;4933979;29;20217;-81
2022/07/09 04:59:12;;;;;;;3.87;2.37;;;;;;;;;;4932047;29;20846;-81
2022/07/09 05:01:40;;;;;;;5.67;2.40;;;;;;;;;;4936902;29;20211;-81
2022/07/09 05:04:09;;;;;;;6.50;2.07;;;;;;;;;;4928396;29;20198;-83
2022/07/09 05:06:37;;;;;;;4.67;2.33;;;;;;;;;;4935763;29;20271;-83
2022/07/09 05:09:04;;;;;;;4.20;2.33;;;;;;;;;;4938272;29;20238;-81
2022/07/09 05:11:32;;;;;;;5.70;2.40;;;;;;;;;;4936241;29;21053;-81
2022/07/09 05:13:59;;;;;;;3.13;2.13;;;;;;;;;;4936808;29;20207;-81
2022/07/09 05:16:29;;;;;;;3.73;2.20;;;;;;;;;;4928622;29;20203;-80
2022/07/09 05:18:56;;;;;;;5.63;2.27;;;;;;;;;;4936809;28;20219;-81
2022/07/09 05:21:25;;;;;;;6.77;2.20;;;;;;;;;;4934434;29;20207;-81
2022/07/09 05:23:53;;;;;;;4.93;2.30;;;;;;;;;;4933452;29;20632;-80
2022/07/09 05:26:21;;;;;;;3.83;2.70;;;;;;;;;;4936063;29;20222;-81
2022/07/09 05:28:48;;;;;;;2.97;2.10;;;;;;;;;;4937432;29;20229;-80
2022/07/09 05:31:15;;;;;;;5.67;2.67;;;;;;;;;;4938786;29;20306;-80
2022/07/09 05:33:43;;;;;;;5.87;2.70;;;;;;;;;;4936087;29;20195;-81
2022/07/09 05:36:15;;;;;;;4.87;2.70;;;;;;;;;;4936518;29;20659;-80
2022/07/09 05:38:44;;;;;;;3.67;2.50;;;;;;;;;;4933637;29;20208;-82
2022/07/09 05:41:14;;;;;;;7.50;2.67;;;;;;;;;;4935677;29;20229;-82
2022/07/09 05:43:41;;;;;;;4.97;3.07;;;;;;;;;;4931296;29;20207;-82
2022/07/09 05:46:08;;;;;;;4.13;2.57;;;;;;;;;;4934679;29;20215;-82
2022/07/09 05:48:35;;;;;;;6.23;2.97;;;;;;;;;;4933833;29;20214;-82
2022/07/09 05:51:02;;;;;;;6.30;3.40;;;;;;;;;;4937328;29;20226;-82
2022/07/09 05:53:30;;;;;;;6.60;3.20;;;;;;;;;;4933922;29;20203;-81
2022/07/09 05:55:59;;;;;;;7.63;3.33;;;;;;;;;;4935014;29;20265;-82
2022/07/09 05:58:27;;;;;;;9.03;3.50;;;;;;;;;;4933685;29;20578;-82
2022/07/09 06:00:54;;;;;;;6.50;3.90;;;;;;;;;;4934899;29;20282;-82
2022/07/09 06:03:21;;;;;;;7.67;3.63;;;;;;;;;;4934654;29;20207;-82
2022/07/09 06:05:50;;;;;;;5.67;3.40;;;;;;;;;;4937030;29;20218;-82
2022/07/09 06:08:17;;;;;;;6.70;3.50;;;;;;;;;;4937029;29;20285;-82
2022/07/09 06:10:44;;;;;;;8.60;3.97;;;;;;;;;;4934028;29;20373;-82
2022/07/09 06:13:13;;;;;;;8.07;3.93;;;;;;;;;;4933245;29;20217;-81
2022/07/09 06:15:40;;;;;;;6.23;3.50;;;;;;;;;;4938045;29;20283;-82
2022/07/09 06:18:07;;;;;;;7.87;3.70;;;;;;;;;;4935175;29;20234;-82
2022/07/09 06:20:36;;;;;;;10.13;4.03;;;;;;;;;;4941411;29;20233;-82
2022/07/09 06:23:03;;;;;;;7.73;4.30;;;;;;;;;;4939151;29;20213;-82
2022/07/09 06:25:31;;;;;;;5.77;3.57;;;;;;;;;;4936655;29;20237;-83
2022/07/09 06:27:58;;;;;;;7.63;4.03;;;;;;;;;;4937158;29;20293;-83
2022/07/09 06:30:30;;;;;;;10.33;4.00;;;;;;;;;;4936812;28;20237;-83
2022/07/09 06:32:57;;;;;;;7.33;3.60;;;;;;;;;;4935221;29;20216;-83
2022/07/09 06:35:25;;;;;;;6.73;3.80;;;;;;;;;;4935054;29;20296;-82
2022/07/09 06:37:52;;;;;;;5.57;3.20;;;;;;;;;;4934575;29;20239;-83
2022/07/09 06:40:19;;;;;;;6.87;3.30;;;;;;;;;;4934233;29;20669;-83
2022/07/09 06:42:47;;;;;;;8.43;3.97;;;;;;;;;;4940622;28;20206;-83
2022/07/09 06:45:14;;;;;;;10.77;3.93;;;;;;;;;;4942967;29;20218;-82
2022/07/09 06:47:43;;;;;;;10.57;4.37;;;;;;;;;;4939832;29;20221;-82
2022/07/09 06:50:10;;;;;;;8.67;4.13;;;;;;;;;;4939943;29;20254;-82
2022/07/09 06:52:37;;;;;;;8.27;4.63;;;;;;;;;;4939015;29;20210;-82
2022/07/09 06:55:06;;;;;;;12.43;4.87;;;;;;;;;;4940979;29;20237;-82
2022/07/09 06:57:33;;;;;;;8.93;4.70;;;;;;;;;;4936468;29;20226;-82
2022/07/09 07:00:01;;;;;;;8.40;4.30;;;;;;;;;;4941145;28;20227;-82
2022/07/09 07:02:30;;;;;;;9.90;4.77;;;;;;;;;;4941493;29;20274;-81
2022/07/09 07:05:00;;;;;;;13.50;5.50;;;;;;;;;;4942880;29;20202;-81
2022/07/09 07:07:27;;;;;;;8.70;4.50;;;;;;;;;;4939933;29;20228;-81
2022/07/09 07:09:57;;;;;;;10.13;5.07;;;;;;;;;;4944958;28;20235;-81
2022/07/09 07:12:24;;;;;;;12.07;5.50;;;;;;;;;;4941350;29;20237;-81
2022/07/09 07:14:51;;;;;;;12.77;5.80;;;;;;;;;;4939698;29;20232;-82
2022/07/09 07:17:19;;;;;;;16.50;7.70;;;;;;;;;;4940440;29;20265;-80
2022/07/09 07:19:46;;;;;;;16.80;7.50;;;;;;;;;;4939690;28;20314;-81
2022/07/09 07:22:17;;;;;;;18.40;9.37;;;;;;;;;;4938636;29;20212;-81
2022/07/09 07:25:01;;;;;;;20.60;9.50;;;;;;;;;;4946451;28;20216;-81
2022/07/09 07:27:29;;;;;;;15.90;10.20;;;;;;;;;;4941097;29;20239;-83
2022/07/09 07:29:58;;;;;;;19.63;8.80;;;;;;;;;;4939140;28;20233;-83
2022/07/09 07:32:26;;;;;;;21.23;9.20;;;;;;;;;;4941111;29;20232;-83
2022/07/09 07:34:53;;;;;;;13.83;8.13;;;;;;;;;;4942481;28;20257;-83
2022/07/09 07:37:21;;;;;;;16.53;8.73;;;;;;;;;;4959457;28;20187;-83
2022/07/09 07:39:51;;;;;;;14.33;8.70;;;;;;;;;;4961396;28;20215;-82
2022/07/09 07:42:19;;;;;;;18.60;7.60;;;;;;;;;;4944481;29;20367;-83
2022/07/09 07:44:46;;;;;;;19.37;8.53;;;;;;;;;;4936611;29;20302;-83
2022/07/09 07:47:13;;;;;;;26.17;10.13;;;;;;;;;;4937109;29;20225;-82
2022/07/09 07:49:40;;;;;;;16.27;9.53;;;;;;;;;;4939093;28;20229;-82
2022/07/09 07:52:15;;;;;;;16.10;9.10;;;;;;;;;;4937983;29;20298;-82
2022/07/09 07:54:44;;;;;;;16.73;9.37;;;;;;;;;;4938953;28;20746;-82
2022/07/09 07:57:12;;;;;;;22.73;9.70;;;;;;;;;;4935758;29;20218;-82
2022/07/09 07:59:39;;;;;;;17.87;10.30;;;;;;;;;;4936219;29;20228;-83
2022/07/09 08:02:07;;;;;;;16.43;8.97;;;;;;;;;;4953019;28;20214;-83
2022/07/09 08:04:34;;;;;;;13.80;8.13;;;;;;;;;;4933226;29;20278;-83
2022/07/09 08:07:01;;;;;;;13.57;7.00;;;;;;;;;;4940114;29;20315;-83
2022/07/09 08:09:29;;;;;;;11.27;5.93;;;;;;;;;;4936355;29;20231;-83
2022/07/09 08:12:00;;;;;;;7.73;4.53;;;;;;;;;;4938881;29;20296;-82
2022/07/09 08:14:27;;;;;;;8.53;4.93;;;;;;;;;;4942482;29;20672;-82
2022/07/09 08:16:55;;;;;;;11.37;6.40;;;;;;;;;;4934990;29;20213;-81
2022/07/09 08:19:22;;;;;;;10.40;5.63;;;;;;;;;;4937562;29;20584;-82
2022/07/09 08:21:49;;;;;;;6.53;4.60;;;;;;;;;;4953520;29;20213;-82
2022/07/09 08:24:19;;;;;;;7.63;4.53;;;;;;;;;;4934292;29;20609;-82
2022/07/09 08:26:46;;;;;;;12.77;4.43;;;;;;;;;;4939842;29;20234;-81
2022/07/09 08:29:15;;;;;;;7.97;4.03;;;;;;;;;;4939427;28;20233;-82
2022/07/09 08:31:42;;;;;;;6.20;3.67;;;;;;;;;;4937585;29;20225;-82
2022/07/09 08:34:09;;;;;;;9.53;3.77;;;;;;;;;;4934695;29;20218;-81
2022/07/09 08:36:40;;;;;;;5.27;3.10;;;;;;;;;;4940397;29;20209;-81
2022/07/09 08:39:07;;;;;;;7.70;2.97;;;;;;;;;;4936142;29;20618;-81
2022/07/09 08:41:34;;;;;;;6.30;3.30;;;;;;;;;;4935776;29;20214;-82
2022/07/09 08:44:03;;;;;;;7.63;3.43;;;;;;;;;;4935527;29;20202;-82
2022/07/09 08:46:33;;;;;;;6.87;3.30;;;;;;;;;;4939247;29;20875;-81
2022/07/09 08:49:03;;;;;;;6.83;3.50;;;;;;;;;;4937744;28;20564;-83
2022/07/09 08:51:31;;;;;;;9.73;3.60;;;;;;;;;;4941158;29;20232;-82
2022/07/09 08:57:01;;;;;;;7.13;3.93;;;;;;;;;;4930963;29;20210;-81
2022/07/09 08:59:28;;;;;;;7.57;3.30;;;;;;;;;;4935701;29;20960;-82
2022/07/09 09:01:56;;;;;;;4.50;3.27;;;;;;;;;;4937632;29;20203;-81
2022/07/09 09:04:24;;;;;;;3.57;2.90;;;;;;;;;;4930621;29;20234;-81
2022/07/09 09:06:53;;;;;;;3.57;2.90;;;;;;;;;;4929082;29;20351;-82
2022/07/09 09:09:21;;;;;;;7.27;3.80;;;;;;;;;;4931284;29;20305;-83
2022/07/09 09:11:50;;;;;;;10.93;3.20;;;;;;;;;;4932895;29;20203;-83
2022/07/09 09:14:22;;;;;;;5.90;3.80;;;;;;;;;;4938261;29;20238;-83
2022/07/09 09:16:49;;;;;;;7.40;3.70;;;;;;;;;;4938476;29;20326;-82
2022/07/09 09:19:17;;;;;;;6.63;3.80;;;;;;;;;;4936353;29;20227;-82
2022/07/09 09:21:44;;;;;;;3.70;2.80;;;;;;;;;;4936204;29;20218;-82
2022/07/09 09:24:12;;;;;;;4.23;2.60;;;;;;;;;;4939049;29;20262;-82
2022/07/09 09:29:50;;;;;;;10.03;3.13;;;;;;;;;;4933007;28;20229;-82
2022/07/09 09:32:21;;;;;;;5.87;2.80;;;;;;;;;;4947770;29;20298;-81
2022/07/09 09:34:52;;;;;;;6.20;3.13;;;;;;;;;;4940905;29;20202;-81
2022/07/09 09:37:29;;;;;;;7.93;3.33;;;;;;;;;;4942565;29;22245;-81
2022/07/09 09:39:56;;;;;;;5.23;3.30;;;;;;;;;;4942752;29;20265;-81
2022/07/09 09:42:25;;;;;;;5.20;3.40;;;;;;;;;;4942898;29;20217;-81
2022/07/09 09:44:52;;;;;;;10.23;4.57;;;;;;;;;;4947991;29;20552;-81
2022/07/09 09:47:26;;;;;;;6.77;3.57;;;;;;;;;;4936025;29;20227;-82
2022/07/09 09:50:00;;;;;;;5.27;3.10;;;;;;;;;;4936264;29;20231;-81
2022/07/09 09:52:28;;;;;;;7.00;3.33;;;;;;;;;;4931925;29;20286;-81
2022/07/09 09:54:58;;;;;;;5.67;3.47;;;;;;;;;;4932646;29;20349;-81
2022/07/09 09:57:27;;;;;;;2.87;2.40;;;;;;;;;;4934174;29;21366;-81
2022/07/09 09:59:57;;;;;;;4.97;2.60;;;;;;;;;;4935594;29;20251;-81
2022/07/09 10:02:25;;;;;;;3.80;2.80;;;;;;;;;;4931241;29;20223;-81
2022/07/09 10:04:52;;;;;;;6.27;3.03;;;;;;;;;;4931220;29;20694;-81
2022/07/09 10:07:22;;;;;;;5.80;3.20;;;;;;;;;;4930345;29;21097;-81
2022/07/09 10:09:55;;;;;;;4.63;3.00;;;;;;;;;;4933773;29;20219;-81
2022/07/09 10:12:27;;;;;;;4.00;2.90;;;;;;;;;;4928039;29;20204;-81
2022/07/09 10:14:57;;;;;;;4.63;3.27;;;;;;;;;;4930128;29;20208;-81
2022/07/09 10:17:25;;;;;;;5.10;3.17;;;;;;;;;;4936685;29;20326;-81
2022/07/09 10:19:54;;;;;;;5.17;3.13;;;;;;;;;;4936667;29;20328;-83
2022/07/09 10:22:23;;;;;;;4.83;2.80;;;;;;;;;;4936085;29;20243;-83
2022/07/09 10:24:52;;;;;;;5.60;3.40;;;;;;;;;;4935215;29;20221;-81
2022/07/09 10:27:22;;;;;;;4.80;2.93;;;;;;;;;;4943077;29;20231;-82
2022/07/09 10:29:56;;;;;;;4.33;2.80;;;;;;;;;;4933377;29;20231;-81
2022/07/09 10:32:25;;;;;;;5.50;2.97;;;;;;;;;;4939403;29;20538;-83
2022/07/09 10:34:57;;;;;;;4.10;2.87;;;;;;;;;;4929847;29;20223;-83
2022/07/09 10:37:43;;;;;;;4.20;2.80;;;;;;;;;;4931960;29;20301;-83
2022/07/09 10:40:15;;;;;;;4.23;2.50;;;;;;;;;;4929420;29;20741;-82
2022/07/09 10:42:43;;;;;;;8.07;2.40;;;;;;;;;;4932602;29;20656;-81
2022/07/09 10:45:33;;;;;;;5.97;2.63;;;;;;;;;;4934129;29;20969;-82
2022/07/09 10:48:01;;;;;;;2.93;2.63;;;;;;;;;;4933652;29;20301;-82
2022/07/09 10:50:29;;;;;;;5.77;2.47;;;;;;;;;;4937149;28;20636;-82
2022/07/09 10:52:59;;;;;;;2.80;2.23;;;;;;;;;;4945148;29;20299;-82
2022/07/09 10:55:29;;;;;;;4.67;2.13;;;;;;;;;;4946353;29;20222;-82
2022/07/09 10:57:57;;;;;;;5.23;1.80;;;;;;;;;;4948033;29;20560;-83
2022/07/09 11:00:25;;;;;;;4.83;2.03;;;;;;;;;;4948625;28;20230;-82
2022/07/09 11:02:56;;;;;;;4.10;2.10;;;;;;;;;;4966613;28;20207;-82
2022/07/09 11:05:23;;;;;;;3.53;2.10;;;;;;;;;;4968832;28;20187;-82
2022/07/09 11:07:59;;;;;;;2.67;2.07;;;;;;;;;;4968506;28;20302;-82
2022/07/09 11:10:27;;;;;;;5.57;2.73;;;;;;;;;;4943980;29;20238;-82
2022/07/09 11:12:54;;;;;;;5.13;2.30;;;;;;;;;;4946566;29;20202;-83
2022/07/09 11:15:22;;;;;;;3.20;2.80;;;;;;;;;;4943249;29;20242;-83
2022/07/09 11:17:55;;;;;;;5.43;2.60;;;;;;;;;;4947650;29;20216;-82
2022/07/09 11:20:23;;;;;;;4.53;2.47;;;;;;;;;;4946444;29;20321;-82
2022/07/09 11:22:56;;;;;;;4.90;2.67;;;;;;;;;;4942589;29;20292;-80
2022/07/09 11:25:27;;;;;;;5.50;2.60;;;;;;;;;;4943860;29;20210;-81
2022/07/09 11:27:55;;;;;;;7.33;2.50;;;;;;;;;;4939849;29;20228;-81
2022/07/09 11:30:22;;;;;;;3.73;2.40;;;;;;;;;;4945109;28;20245;-82
2022/07/09 11:32:50;;;;;;;3.00;2.40;;;;;;;;;;4945870;29;20208;-81
2022/07/09 11:35:39;;;;;;;5.13;2.57;;;;;;;;;;4949959;29;20295;-82
2022/07/09 11:38:08;;;;;;;4.03;2.30;;;;;;;;;;4946196;29;20880;-82
2022/07/09 11:40:37;;;;;;;3.30;2.23;;;;;;;;;;4945789;28;20228;-82
2022/07/09 11:43:13;;;;;;;4.20;2.40;;;;;;;;;;4946428;29;20301;-82
2022/07/09 11:45:41;;;;;;;2.47;2.10;;;;;;;;;;4942800;29;20790;-82
2022/07/09 11:48:09;;;;;;;3.43;1.87;;;;;;;;;;4944180;29;20222;-82
2022/07/09 11:50:43;;;;;;;3.47;1.80;;;;;;;;;;4944368;29;20731;-82
2022/07/09 11:53:20;;;;;;;3.03;1.87;;;;;;;;;;4938151;29;20216;-81
2022/07/09 11:56:01;;;;;;;3.20;1.70;;;;;;;;;;4936444;29;20225;-82
2022/07/09 11:58:30;;;;;;;2.97;1.80;;;;;;;;;;4936454;29;20293;-82
2022/07/09 12:00:59;;;;;;;3.57;1.80;;;;;;;;;;4939818;29;20234;-83
2022/07/09 12:03:26;;;;;;;3.30;1.63;;;;;;;;;;4941427;29;20270;-82
2022/07/09 12:05:54;;;;;;;2.03;1.60;;;;;;;;;;4939091;29;20259;-81
2022/07/09 12:08:28;;;;;;;3.50;1.97;;;;;;;;;;4935170;29;20623;-81
2022/07/09 12:11:00;;;;;;;4.07;1.93;;;;;;;;;;4931729;29;20226;-81
2022/07/09 12:13:29;;;;;;;3.23;1.50;;;;;;;;;;4935745;29;20200;-80
2022/07/09 12:15:58;;;;;;;2.37;1.40;;;;;;;;;;4932055;29;20260;-81
2022/07/09 12:18:25;;;;;;;2.23;1.40;;;;;;;;;;4934807;29;20199;-81
2022/07/09 12:20:55;;;;;;;4.50;1.87;;;;;;;;;;4935283;29;20227;-81
2022/07/09 12:23:22;;;;;;;2.50;1.50;;;;;;;;;;4932630;29;20202;-81
2022/07/09 12:25:50;;;;;;;4.00;1.53;;;;;;;;;;4937206;29;20718;-81
2022/07/09 12:28:17;;;;;;;3.97;1.67;;;;;;;;;;4942105;29;20223;-81
2022/07/09 12:30:45;;;;;;;2.30;1.47;;;;;;;;;;4945763;29;20245;-83
2022/07/09 12:33:13;;;;;;;3.43;1.70;;;;;;;;;;4940608;29;20302;-81
2022/07/09 12:35:41;;;;;;;4.83;1.93;;;;;;;;;;4933799;29;20227;-81
2022/07/09 12:38:10;;;;;;;3.73;1.50;;;;;;;;;;4937190;29;20905;-81
2022/07/09 12:40:37;;;;;;;6.50;1.57;;;;;;;;;;4940315;28;20230;-80
2022/07/09 12:43:05;;;;;;;33.47;3.93;;;;;;;;;;4933717;29;20252;-80
2022/07/09 12:45:32;;;;;;;15.03;2.00;;;;;;;;;;4934569;29;20227;-81
2022/07/09 12:47:59;;;;;;;12.83;1.77;;;;;;;;;;4933148;29;20227;-81
2022/07/09 12:50:39;;;;;;;25.23;2.70;;;;;;;;;;4931843;28;20226;-81
2022/07/09 12:53:08;;;;;;;9.73;2.37;;;;;;;;;;4933818;29;20245;-81
2022/07/09 12:55:36;;;;;;;4.57;1.60;;;;;;;;;;4934769;29;20563;-81
2022/07/09 12:58:03;;;;;;;4.33;1.70;;;;;;;;;;4933853;29;20204;-81
2022/07/09 13:00:30;;;;;;;3.73;1.80;;;;;;;;;;4936906;29;20234;-82
2022/07/09 13:03:01;;;;;;;2.20;1.43;;;;;;;;;;4936357;29;20211;-82
2022/07/09 13:05:29;;;;;;;3.10;1.40;;;;;;;;;;4935960;29;20238;-80
2022/07/09 13:07:58;;;;;;;3.73;1.50;;;;;;;;;;4936555;29;20726;-81
2022/07/09 13:10:26;;;;;;;6.83;1.67;;;;;;;;;;4936719;29;20237;-81
2022/07/09 13:12:53;;;;;;;2.87;1.60;;;;;;;;;;4939300;29;20664;-82
2022/07/09 13:15:22;;;;;;;2.80;1.90;;;;;;;;;;4941516;29;20254;-82
2022/07/09 13:17:59;;;;;;;1.97;1.40;;;;;;;;;;4940410;29;20214;-79
2022/07/09 13:20:26;;;;;;;3.20;1.50;;;;;;;;;;4943905;29;20222;-81
2022/07/09 13:22:55;;;;;;;9.70;1.70;;;;;;;;;;4940005;29;20293;-80
2022/07/09 13:25:39;;;;;;;4.60;1.73;;;;;;;;;;4938820;29;20628;-81
2022/07/09 13:28:07;;;;;;;2.07;1.50;;;;;;;;;;4939478;29;20330;-82
2022/07/09 13:30:34;;;;;;;2.63;1.40;;;;;;;;;;4935615;29;20241;-81
2022/07/09 13:33:01;;;;;;;2.10;1.57;;;;;;;;;;4935690;29;20206;-81
2022/07/09 13:35:28;;;;;;;3.43;1.60;;;;;;;;;;4942498;29;20206;-81
2022/07/09 13:37:57;;;;;;;4.30;1.80;;;;;;;;;;4937142;29;20214;-81
2022/07/09 13:40:24;;;;;;;5.07;1.60;;;;;;;;;;4931225;29;20236;-82
2022/07/09 13:42:52;;;;;;;7.70;1.60;;;;;;;;;;4930271;29;20295;-81
2022/07/09 13:45:19;;;;;;;4.00;2.03;;;;;;;;;;4937224;29;20233;-82
2022/07/09 13:47:46;;;;;;;4.53;2.10;;;;;;;;;;4931764;29;20802;-81
2022/07/09 13:50:13;;;;;;;8.80;1.90;;;;;;;;;;4931123;29;20225;-80
2022/07/09 13:52:40;;;;;;;4.27;1.90;;;;;;;;;;4937963;29;20222;-80
2022/07/09 13:55:09;;;;;;;3.40;1.73;;;;;;;;;;4939819;28;20218;-80
2022/07/09 13:57:42;;;;;;;2.20;1.63;;;;;;;;;;4945266;29;20212;-80
2022/07/09 14:00:15;;;;;;;4.80;1.93;;;;;;;;;;4947690;28;20236;-82
2022/07/09 14:02:42;;;;;;;2.47;1.73;;;;;;;;;;4947517;29;20210;-81
2022/07/09 14:05:11;;;;;;;3.57;1.90;;;;;;;;;;4942637;29;20298;-81
2022/07/09 14:13:30;;;;;;;5.53;1.90;;;;;;;;;;4953327;29;20258;-81
2022/07/09 14:16:19;;;;;;;3.97;1.70;;;;;;;;;;4947076;28;20238;-81
2022/07/09 14:18:46;;;;;;;4.20;1.80;;;;;;;;;;4942532;29;20205;-81
2022/07/09 14:21:13;;;;;;;3.87;1.70;;;;;;;;;;4937450;29;20318;-81
2022/07/09 14:23:41;;;;;;;3.67;1.97;;;;;;;;;;4936610;29;20209;-82
2022/07/09 14:26:08;;;;;;;3.83;2.20;;;;;;;;;;4941365;29;20238;-83
2022/07/09 14:28:37;;;;;;;3.17;1.63;;;;;;;;;;4943169;29;20655;-81
2022/07/09 14:31:04;;;;;;;5.37;1.50;;;;;;;;;;4956927;28;20234;-80
2022/07/09 14:33:31;;;;;;;3.13;1.57;;;;;;;;;;4958175;28;20266;-81
2022/07/09 14:35:59;;;;;;;2.40;1.73;;;;;;;;;;4938660;29;20655;-81
2022/07/09 14:38:26;;;;;;;4.33;1.90;;;;;;;;;;4937738;28;21293;-80
2022/07/09 14:40:53;;;;;;;2.73;1.80;;;;;;;;;;4932818;29;20230;-81
2022/07/09 14:43:20;;;;;;;2.97;1.67;;;;;;;;;;4953751;28;21141;-81
2022/07/09 14:45:49;;;;;;;2.30;1.77;;;;;;;;;;4945684;29;20335;-81
2022/07/09 14:48:16;;;;;;;2.50;1.73;;;;;;;;;;4943881;29;20234;-82
2022/07/09 14:50:43;;;;;;;4.27;1.77;;;;;;;;;;4954302;28;20648;-82
2022/07/09 14:53:11;;;;;;;4.00;2.07;;;;;;;;;;4948338;29;20553;-80
2022/07/09 14:58:19;;;;;;;2.20;1.57;;;;;;;;;;4949640;29;20261;-81
2022/07/09 15:00:46;;;;;;;4.13;2.27;;;;;;;;;;4942964;29;20278;-80
2022/07/09 15:03:15;;;;;;;2.80;1.83;;;;;;;;;;4941554;29;20212;-81
2022/07/09 15:05:42;;;;;;;4.53;2.13;;;;;;;;;;4944385;29;20225;-82